Time;durP1;ratioP1;P1;durP2;ratioP2;P2;SDS_P1;SDS_P2;PMS_P1;PMS_P2;Temp;Humidity;BMP_temperature;BMP_pressure;BME280_temperature;BME280_humidity;BME280_pressure;Samples;Min_cycle;Max_cycle;Signal;HPM_P1;HPM_P2
2022/03/13 00:00:41;;;;;;;29.27;14.68;;;;;;;8.95;54.06;101173.06;5088811;28;20098;-65
2022/03/13 00:03:10;;;;;;;24.98;14.25;;;;;;;8.88;53.97;101175.41;5089750;28;20065;-65
2022/03/13 00:05:41;;;;;;;31.95;15.82;;;;;;;8.78;54.21;101179.81;5088794;28;20040;-65
2022/03/13 00:08:27;;;;;;;30.83;15.60;;;;;;;8.73;54.20;101180.22;5088237;28;20610;-65
2022/03/13 00:11:01;;;;;;;30.30;15.38;;;;;;;8.78;54.24;101175.34;5089850;28;20759;-65
2022/03/13 00:13:31;;;;;;;33.38;15.98;;;;;;;8.73;54.53;101168.78;5088533;28;20048;-65
2022/03/13 00:16:05;;;;;;;29.43;15.43;;;;;;;8.72;54.10;101170.59;5090014;28;20044;-65
2022/03/13 00:18:32;;;;;;;30.42;16.60;;;;;;;8.74;54.53;101173.13;5089518;28;20036;-65
2022/03/13 00:21:02;;;;;;;33.65;15.57;;;;;;;8.79;53.98;101174.41;5089652;28;20450;-65
2022/03/13 00:23:31;;;;;;;26.92;14.95;;;;;;;8.79;53.97;101171.75;5088183;28;20064;-65
2022/03/13 00:25:58;;;;;;;29.80;15.32;;;;;;;8.86;53.17;101177.34;5088304;28;20123;-65
2022/03/13 00:28:25;;;;;;;27.58;15.65;;;;;;;8.83;53.86;101175.78;5089628;28;20040;-65
2022/03/13 00:30:52;;;;;;;32.00;15.50;;;;;;;8.72;54.18;101165.31;5087836;28;20048;-65
2022/03/13 00:33:20;;;;;;;29.80;15.35;;;;;;;8.67;53.84;101164.84;5071297;28;20458;-65
2022/03/13 00:35:47;;;;;;;31.88;16.02;;;;;;;8.68;53.84;101169.19;5071416;28;20508;-65
2022/03/13 00:38:13;;;;;;;36.30;16.08;;;;;;;8.72;53.32;101167.13;5089113;28;20492;-65
2022/03/13 00:40:40;;;;;;;32.42;15.63;;;;;;;8.72;53.16;101164.47;5071061;28;20064;-65
2022/03/13 00:43:07;;;;;;;32.38;16.10;;;;;;;8.68;53.05;101165.69;5082799;28;20037;-65
2022/03/13 00:45:35;;;;;;;32.35;16.45;;;;;;;8.62;52.55;101156.47;5075575;28;20048;-65
2022/03/13 00:48:02;;;;;;;34.35;15.93;;;;;;;8.58;52.75;101155.91;5074427;28;20040;-65
2022/03/13 00:50:29;;;;;;;28.63;15.13;;;;;;;8.49;52.57;101151.41;5057871;28;20072;-65
2022/03/13 00:52:57;;;;;;;30.05;15.23;;;;;;;8.38;52.39;101144.34;5074065;28;20562;-65
2022/03/13 00:55:23;;;;;;;29.38;15.50;;;;;;;8.44;51.95;101146.50;5057803;28;20048;-65
2022/03/13 00:57:50;;;;;;;28.75;15.48;;;;;;;8.39;52.55;101139.91;5075572;28;20064;-65
2022/03/13 01:00:17;;;;;;;34.40;15.80;;;;;;;8.33;52.08;101143.06;5075276;28;20507;-65
2022/03/13 01:02:44;;;;;;;27.30;14.88;;;;;;;8.28;52.17;101132.88;5074173;28;20045;-65
2022/03/13 01:05:20;;;;;;;32.85;15.68;;;;;;;8.24;52.63;101139.38;5075289;28;20081;-65
2022/03/13 01:07:48;;;;;;;31.10;15.98;;;;;;;8.23;51.38;101133.25;5074808;28;20064;-65
2022/03/13 01:10:14;;;;;;;33.67;15.60;;;;;;;8.29;51.53;101128.44;5075201;28;20385;-65
2022/03/13 01:12:46;;;;;;;28.88;14.48;;;;;;;8.22;51.21;101123.66;5091702;28;20064;-65
2022/03/13 01:15:13;;;;;;;28.60;14.20;;;;;;;8.26;50.94;101126.91;5073800;28;20071;-65
2022/03/13 01:17:39;;;;;;;26.17;14.15;;;;;;;8.33;50.05;101111.34;5073748;28;20097;-65
2022/03/13 01:20:16;;;;;;;29.98;14.45;;;;;;;8.33;49.67;101112.19;5074730;28;20094;-65
2022/03/13 01:22:43;;;;;;;29.83;13.98;;;;;;;8.28;49.81;101109.09;5073703;28;20048;-65
2022/03/13 01:25:10;;;;;;;27.60;14.38;;;;;;;8.31;49.33;101100.06;5073701;28;20450;-65
2022/03/13 01:27:36;;;;;;;32.33;14.45;;;;;;;8.33;49.70;101098.97;5057230;28;20036;-65
2022/03/13 01:30:04;;;;;;;31.30;13.98;;;;;;;8.32;48.25;101096.47;5073675;28;20048;-65
2022/03/13 01:32:32;;;;;;;27.55;13.63;;;;;;;8.21;48.89;101090.28;5074511;28;20044;-65
2022/03/13 01:34:59;;;;;;;29.33;14.15;;;;;;;8.22;48.10;101091.09;5074774;28;20097;-65
2022/03/13 01:37:32;;;;;;;25.60;13.68;;;;;;;8.23;48.20;101090.97;5073553;28;20060;-65
2022/03/13 01:40:10;;;;;;;29.40;13.35;;;;;;;8.24;48.22;101089.16;5073349;28;20063;-65
2022/03/13 01:42:40;;;;;;;24.85;13.25;;;;;;;8.24;47.37;101079.44;5057090;28;20075;-65
2022/03/13 01:45:10;;;;;;;25.58;12.63;;;;;;;8.26;47.25;101089.91;5073859;28;20051;-65
2022/03/13 01:47:37;;;;;;;30.23;13.10;;;;;;;8.26;46.99;101084.59;5074901;28;20044;-65
2022/03/13 01:50:09;;;;;;;22.95;12.63;;;;;;;8.24;47.82;101086.50;5074229;28;20045;-65
2022/03/13 01:52:38;;;;;;;26.33;13.63;;;;;;;8.16;46.99;101079.25;5072978;28;20075;-65
2022/03/13 01:55:06;;;;;;;24.65;12.50;;;;;;;8.14;46.25;101072.44;5072031;28;20045;-65
2022/03/13 01:57:36;;;;;;;25.88;12.45;;;;;;;8.08;46.49;101071.16;5056723;28;20048;-65
2022/03/13 02:00:07;;;;;;;27.48;13.55;;;;;;;8.00;46.58;101073.59;5074179;28;20047;-65
2022/03/13 02:02:52;;;;;;;26.55;12.63;;;;;;;8.08;46.56;101071.97;5090566;27;20373;-65
2022/03/13 02:05:36;;;;;;;24.00;12.27;;;;;;;8.04;46.04;101067.06;5088996;28;20040;-65
2022/03/13 02:08:12;;;;;;;25.90;12.75;;;;;;;8.06;45.58;101062.50;5090327;28;20051;-65
2022/03/13 02:10:39;;;;;;;23.70;11.55;;;;;;;8.00;45.00;101063.00;5089061;28;20044;-65
2022/03/13 02:13:10;;;;;;;23.95;12.23;;;;;;;8.01;45.68;101056.78;5090386;28;20089;-65
2022/03/13 02:15:38;;;;;;;25.63;12.75;;;;;;;7.95;45.74;101060.78;5088964;28;20385;-65
2022/03/13 02:18:05;;;;;;;24.70;12.77;;;;;;;8.01;45.32;101054.97;5089008;28;20079;-65
2022/03/13 02:20:41;;;;;;;22.92;11.77;;;;;;;7.95;45.07;101055.50;5090096;28;20392;-65
2022/03/13 02:23:17;;;;;;;22.10;11.68;;;;;;;7.88;45.24;101052.50;5088955;28;20442;-65
2022/03/13 02:25:43;;;;;;;23.88;12.05;;;;;;;7.93;45.37;101052.16;5090016;28;20048;-65
2022/03/13 02:28:13;;;;;;;26.85;12.15;;;;;;;7.85;45.73;101052.75;5090040;28;20434;-65
2022/03/13 02:30:39;;;;;;;27.20;12.20;;;;;;;7.85;45.89;101049.28;5089820;28;20098;-65
2022/03/13 02:33:06;;;;;;;27.17;12.48;;;;;;;7.75;45.24;101046.59;5090036;28;20068;-65
2022/03/13 02:35:33;;;;;;;29.80;12.00;;;;;;;7.77;46.13;101052.59;5089899;28;20400;-65
2022/03/13 02:37:59;;;;;;;26.33;12.32;;;;;;;7.64;45.64;101054.56;5088378;28;20086;-65
2022/03/13 02:40:27;;;;;;;22.20;12.60;;;;;;;7.59;46.84;101043.56;5088636;28;20044;-65
2022/03/13 02:42:56;;;;;;;28.48;12.85;;;;;;;7.52;46.51;101040.56;5088483;28;20063;-65
2022/03/13 02:45:38;;;;;;;23.50;11.80;;;;;;;7.53;46.07;101034.34;5089784;28;20128;-65
2022/03/13 02:48:08;;;;;;;23.73;12.25;;;;;;;7.56;46.03;101033.25;5088483;28;20040;-65
2022/03/13 02:50:36;;;;;;;24.25;11.10;;;;;;;7.53;46.49;101026.44;5089534;28;20048;-65
2022/03/13 02:53:04;;;;;;;23.15;11.50;;;;;;;7.50;45.71;101034.59;5088279;28;20043;-65
2022/03/13 02:55:31;;;;;;;27.55;12.50;;;;;;;7.45;45.81;101031.50;5088313;28;20040;-65
2022/03/13 02:57:59;;;;;;;22.88;11.45;;;;;;;7.53;45.84;101029.06;5071506;28;20408;-65
2022/03/13 03:00:47;;;;;;;21.95;11.80;;;;;;;7.39;45.90;101024.91;5088062;28;20044;-66
2022/03/13 03:03:16;;;;;;;29.38;12.07;;;;;;;7.49;45.80;101017.06;5071266;28;20076;-65
2022/03/13 03:05:44;;;;;;;23.10;11.85;;;;;;;7.46;45.11;101018.16;5089421;28;20052;-65
2022/03/13 03:08:12;;;;;;;25.70;11.90;;;;;;;7.40;44.79;101012.53;5088055;28;20546;-65
2022/03/13 03:10:39;;;;;;;25.27;12.40;;;;;;;7.50;43.86;101014.31;5089245;28;20072;-65
2022/03/13 03:13:07;;;;;;;25.77;12.63;;;;;;;7.35;44.30;101014.72;5080749;28;20033;-65
2022/03/13 03:15:34;;;;;;;22.60;12.15;;;;;;;7.42;44.20;101011.47;5075753;28;20044;-65
2022/03/13 03:18:04;;;;;;;26.30;11.93;;;;;;;7.47;42.47;101011.91;5075551;28;20067;-65
2022/03/13 03:20:31;;;;;;;25.95;11.88;;;;;;;7.40;42.93;101017.81;5075608;28;20500;-65
2022/03/13 03:22:58;;;;;;;26.17;12.02;;;;;;;7.36;43.61;101011.13;5057442;28;20067;-65
2022/03/13 03:25:27;;;;;;;24.67;11.13;;;;;;;7.34;42.24;101020.97;5074512;28;20044;-65
2022/03/13 03:27:55;;;;;;;24.88;11.35;;;;;;;7.33;43.28;101021.94;5075721;28;20040;-65
2022/03/13 03:30:24;;;;;;;26.55;12.00;;;;;;;7.45;42.01;101023.56;5075272;28;20044;-65
2022/03/13 03:32:52;;;;;;;24.02;11.30;;;;;;;7.40;41.32;101029.22;5074364;28;20071;-65
2022/03/13 03:35:21;;;;;;;26.70;12.27;;;;;;;7.54;41.40;101036.00;5075461;28;20068;-65
2022/03/13 03:37:50;;;;;;;24.38;11.68;;;;;;;7.41;42.00;101032.72;5074914;28;20040;-65
2022/03/13 03:40:20;;;;;;;27.70;11.75;;;;;;;7.41;41.77;101030.91;5075234;28;20036;-65
2022/03/13 03:42:46;;;;;;;25.33;11.57;;;;;;;7.36;41.60;101040.16;5075118;28;20090;-65
2022/03/13 03:45:17;;;;;;;26.40;11.80;;;;;;;7.24;41.34;101034.94;5073986;28;20041;-65
2022/03/13 03:47:45;;;;;;;21.90;10.85;;;;;;;7.27;42.04;101037.31;5073961;28;20448;-65
2022/03/13 03:50:13;;;;;;;23.65;12.25;;;;;;;7.21;41.30;101029.06;5074899;28;20102;-65
2022/03/13 03:52:41;;;;;;;21.95;11.38;;;;;;;7.18;42.80;101029.31;5056774;28;20040;-65
2022/03/13 03:55:08;;;;;;;25.40;11.63;;;;;;;7.08;42.79;101023.94;5073814;28;20068;-65
2022/03/13 03:57:35;;;;;;;36.08;12.43;;;;;;;7.05;44.05;101022.38;5074995;28;20044;-65
2022/03/13 04:00:05;;;;;;;26.50;11.70;;;;;;;6.93;43.82;101028.66;5074730;28;20040;-65
2022/03/13 04:02:42;;;;;;;23.27;11.93;;;;;;;6.87;44.28;101027.34;5074323;28;20080;-65
2022/03/13 04:05:10;;;;;;;21.75;12.02;;;;;;;6.86;44.68;101030.13;5074771;28;20481;-65
2022/03/13 04:07:39;;;;;;;22.42;11.45;;;;;;;6.83;43.80;101025.91;5074546;28;20048;-65
2022/03/13 04:10:08;;;;;;;26.05;11.98;;;;;;;6.85;44.12;101025.78;5073807;28;20056;-65
2022/03/13 04:12:35;;;;;;;24.77;11.57;;;;;;;6.83;44.16;101017.16;5073303;28;20036;-65
2022/03/13 04:15:03;;;;;;;24.90;11.43;;;;;;;6.75;45.05;101017.78;5073541;28;20048;-65
2022/03/13 04:17:29;;;;;;;26.25;11.77;;;;;;;6.70;44.65;101014.69;5074352;28;20040;-65
2022/03/13 04:19:57;;;;;;;24.83;11.73;;;;;;;6.65;43.86;101011.56;5056799;28;20041;-65
2022/03/13 04:22:23;;;;;;;21.65;11.70;;;;;;;6.70;43.76;101012.03;5074319;28;20102;-65
2022/03/13 04:24:50;;;;;;;22.45;11.65;;;;;;;6.73;44.18;101004.72;5073165;28;20090;-65
2022/03/13 04:27:17;;;;;;;26.90;11.95;;;;;;;6.71;42.43;101004.00;5074296;28;20048;-65
2022/03/13 04:29:44;;;;;;;23.23;11.80;;;;;;;6.82;42.01;101010.22;5073118;28;20492;-65
2022/03/13 04:32:11;;;;;;;28.20;11.90;;;;;;;6.83;42.24;101018.00;5073210;28;20090;-65
2022/03/13 04:34:38;;;;;;;28.00;11.98;;;;;;;6.94;41.51;101019.78;5074137;28;20055;-65
2022/03/13 04:37:05;;;;;;;26.27;11.88;;;;;;;6.97;42.61;101011.63;5072881;28;20094;-65
2022/03/13 04:39:35;;;;;;;24.20;11.70;;;;;;;7.02;41.52;101020.00;5072723;28;20041;-65
2022/03/13 04:42:05;;;;;;;25.60;12.23;;;;;;;7.13;40.05;101008.59;5073797;28;20036;-65
2022/03/13 04:44:33;;;;;;;24.45;11.93;;;;;;;7.13;40.01;101005.09;5073039;28;20052;-65
2022/03/13 04:47:01;;;;;;;29.55;11.10;;;;;;;7.22;39.56;100999.91;5072826;28;20098;-66
2022/03/13 04:49:28;;;;;;;27.65;11.98;;;;;;;7.04;40.29;100998.75;5073830;28;20455;-65
2022/03/13 04:51:54;;;;;;;23.38;11.40;;;;;;;7.23;38.67;100998.13;5073959;28;20436;-65
2022/03/13 04:54:23;;;;;;;28.70;12.40;;;;;;;7.24;39.28;100990.06;5072407;28;20497;-65
2022/03/13 04:56:50;;;;;;;22.88;11.48;;;;;;;7.30;38.51;100983.44;5073771;28;20484;-65
2022/03/13 04:59:17;;;;;;;23.17;11.23;;;;;;;7.34;38.66;100989.31;5072462;28;20048;-65
2022/03/13 05:01:44;;;;;;;26.25;12.05;;;;;;;7.31;38.57;101000.94;5073168;28;20051;-66
2022/03/13 05:04:13;;;;;;;27.60;11.43;;;;;;;7.41;37.04;101001.88;5073436;28;20173;-65
2022/03/13 05:06:40;;;;;;;25.70;12.05;;;;;;;7.46;37.79;101012.06;5073593;28;20109;-63
2022/03/13 05:09:09;;;;;;;21.77;11.20;;;;;;;7.41;37.21;101006.31;5073148;28;20140;-63
2022/03/13 05:11:35;;;;;;;27.55;11.55;;;;;;;7.34;37.53;101010.44;5055970;28;20101;-64
2022/03/13 05:14:03;;;;;;;25.38;11.80;;;;;;;7.26;37.86;101005.78;5055833;28;20114;-65
2022/03/13 05:16:29;;;;;;;25.65;11.23;;;;;;;7.32;37.76;101000.00;5073598;28;20041;-66
2022/03/13 05:18:56;;;;;;;25.13;12.30;;;;;;;7.34;37.80;101010.44;5071881;28;20037;-63
2022/03/13 05:21:23;;;;;;;22.35;10.95;;;;;;;7.24;37.12;100998.00;5046544;28;20428;-64
2022/03/13 05:23:49;;;;;;;25.27;11.95;;;;;;;7.27;37.09;101008.28;5071644;28;20045;-65
2022/03/13 05:26:16;;;;;;;25.27;11.32;;;;;;;7.28;37.63;100995.94;5073217;28;20041;-64
2022/03/13 05:28:43;;;;;;;22.17;10.70;;;;;;;7.32;37.18;101009.72;5073284;28;20097;-64
2022/03/13 05:31:09;;;;;;;21.17;11.00;;;;;;;7.34;37.73;100999.88;5071815;28;20036;-65
2022/03/13 05:33:36;;;;;;;22.13;10.55;;;;;;;7.38;36.40;101017.13;5072028;28;20086;-64
2022/03/13 05:36:03;;;;;;;24.15;11.48;;;;;;;7.38;36.64;101003.94;5072031;28;20044;-64
2022/03/13 05:38:30;;;;;;;25.00;11.30;;;;;;;7.39;36.89;101006.44;5071781;28;20048;-64
2022/03/13 05:40:56;;;;;;;24.08;11.23;;;;;;;7.34;36.43;101000.69;5089041;28;20049;-65
2022/03/13 05:43:26;;;;;;;23.65;11.70;;;;;;;7.38;36.58;101014.47;5072924;28;20040;-64
2022/03/13 05:45:52;;;;;;;25.58;11.38;;;;;;;7.40;36.33;101016.00;5072930;28;20561;-65
2022/03/13 05:48:20;;;;;;;28.23;12.38;;;;;;;7.48;35.76;101008.31;5072962;28;20041;-64
2022/03/13 05:50:46;;;;;;;25.77;12.02;;;;;;;7.37;35.95;101003.09;5071642;28;20040;-65
2022/03/13 05:53:14;;;;;;;25.08;11.40;;;;;;;7.48;36.10;101010.97;5054878;28;20043;-65
2022/03/13 05:55:41;;;;;;;25.85;11.45;;;;;;;7.52;35.14;101010.72;5071791;28;20045;-65
2022/03/13 05:58:08;;;;;;;24.20;11.18;;;;;;;7.55;35.54;101016.56;5071606;28;20053;-64
2022/03/13 06:00:36;;;;;;;26.08;11.38;;;;;;;7.61;35.08;101025.78;5072259;28;20040;-65
2022/03/13 06:03:03;;;;;;;28.00;11.55;;;;;;;7.50;35.49;101029.31;5067295;28;20057;-64
2022/03/13 06:05:31;;;;;;;25.25;11.80;;;;;;;7.52;36.68;101021.28;5069310;28;20066;-64
2022/03/13 06:07:59;;;;;;;23.65;11.50;;;;;;;7.55;35.85;101037.69;5071513;28;20076;-64
2022/03/13 06:10:26;;;;;;;28.30;11.90;;;;;;;7.64;35.01;101039.56;5072613;28;20565;-64
2022/03/13 06:12:54;;;;;;;24.85;11.38;;;;;;;7.67;35.94;101039.28;5071546;28;20086;-64
2022/03/13 06:15:20;;;;;;;24.85;11.73;;;;;;;7.51;36.09;101038.88;5088663;28;20071;-64
2022/03/13 06:17:48;;;;;;;28.20;11.50;;;;;;;7.59;35.00;101041.75;5071375;28;20552;-65
2022/03/13 06:20:17;;;;;;;27.90;11.95;;;;;;;7.50;35.02;101045.97;5072782;28;20098;-64
2022/03/13 06:22:47;;;;;;;27.77;12.32;;;;;;;7.23;35.51;101035.88;5071250;28;20043;-64
2022/03/13 06:25:14;;;;;;;23.85;12.25;;;;;;;7.33;36.85;101043.91;5072438;28;20044;-65
2022/03/13 06:27:42;;;;;;;27.45;11.90;;;;;;;7.45;36.19;101040.25;5072669;28;20067;-65
2022/03/13 06:30:14;;;;;;;25.95;11.52;;;;;;;7.49;35.96;101035.53;5072513;28;20071;-65
2022/03/13 06:32:43;;;;;;;22.85;11.23;;;;;;;7.33;36.08;101033.34;5071515;28;20037;-64
2022/03/13 06:35:11;;;;;;;26.13;12.27;;;;;;;7.37;36.93;101044.47;5072525;28;20040;-65
2022/03/13 06:37:39;;;;;;;23.55;11.30;;;;;;;7.40;36.27;101038.94;5072489;28;20040;-65
2022/03/13 06:40:09;;;;;;;28.45;11.73;;;;;;;7.48;36.05;101040.00;5070991;28;20050;-65
2022/03/13 06:42:37;;;;;;;23.52;12.07;;;;;;;7.50;36.45;101040.69;5072379;28;20037;-65
2022/03/13 06:45:05;;;;;;;25.45;11.75;;;;;;;7.55;36.00;101037.69;5071223;28;20075;-65
2022/03/13 06:47:32;;;;;;;26.48;12.02;;;;;;;7.60;36.05;101040.75;5071493;28;20050;-65
2022/03/13 06:49:58;;;;;;;24.30;11.65;;;;;;;7.46;34.85;101038.47;5074749;28;20463;-65
2022/03/13 06:52:25;;;;;;;24.30;11.68;;;;;;;7.63;34.94;101037.06;5075194;28;20047;-65
2022/03/13 06:54:52;;;;;;;27.48;11.32;;;;;;;7.62;35.68;101032.72;5074578;28;20386;-65
2022/03/13 06:57:21;;;;;;;24.35;11.68;;;;;;;7.68;34.96;101034.88;5075016;28;20045;-65
2022/03/13 06:59:48;;;;;;;23.35;12.02;;;;;;;7.64;35.30;101036.06;5074779;28;20160;-65
2022/03/13 07:02:14;;;;;;;25.02;11.95;;;;;;;7.66;35.42;101036.81;5075655;28;20079;-65
2022/03/13 07:04:41;;;;;;;23.48;12.27;;;;;;;7.78;34.58;101037.56;5041751;28;20075;-65
2022/03/13 07:07:09;;;;;;;27.98;12.35;;;;;;;7.83;33.88;101028.28;5075885;28;20416;-65
2022/03/13 07:09:35;;;;;;;24.92;11.60;;;;;;;7.93;33.67;101032.78;5075720;28;20052;-65
2022/03/13 07:12:05;;;;;;;24.10;12.00;;;;;;;7.89;34.34;101037.50;5075739;28;20055;-65
2022/03/13 07:14:33;;;;;;;24.08;11.85;;;;;;;8.08;33.07;101042.06;5058091;28;20558;-65
2022/03/13 07:16:59;;;;;;;25.80;12.18;;;;;;;7.94;33.55;101039.75;5075700;28;20036;-65
2022/03/13 07:19:26;;;;;;;25.88;12.35;;;;;;;8.10;33.19;101039.31;5065734;28;20049;-65
2022/03/13 07:21:53;;;;;;;26.77;12.15;;;;;;;8.08;33.51;101039.44;5068092;28;20052;-65
2022/03/13 07:24:19;;;;;;;23.65;11.30;;;;;;;8.08;33.52;101039.44;5075181;28;20471;-65
2022/03/13 07:26:46;;;;;;;26.33;12.23;;;;;;;8.14;32.64;101046.00;5075515;28;20041;-65
2022/03/13 07:29:13;;;;;;;30.35;12.20;;;;;;;8.14;32.66;101036.25;5091366;28;20094;-65
2022/03/13 07:31:39;;;;;;;25.88;12.10;;;;;;;8.17;33.36;101043.09;5074239;28;20040;-65
2022/03/13 07:34:06;;;;;;;27.30;12.48;;;;;;;8.22;33.22;101041.75;5074490;28;20447;-65
2022/03/13 07:36:34;;;;;;;23.17;12.30;;;;;;;8.19;33.59;101036.72;5075230;28;20443;-65
2022/03/13 07:39:02;;;;;;;24.35;11.73;;;;;;;8.19;32.88;101042.00;5073849;28;20098;-65
2022/03/13 07:41:30;;;;;;;26.02;12.02;;;;;;;8.12;33.27;101046.13;5074165;28;20405;-65
2022/03/13 07:43:57;;;;;;;25.83;12.65;;;;;;;8.07;33.86;101041.22;5057446;28;20036;-65
2022/03/13 07:46:23;;;;;;;31.17;12.38;;;;;;;8.16;33.24;101039.59;5075054;28;20041;-65
2022/03/13 07:48:50;;;;;;;25.60;11.73;;;;;;;8.27;34.16;101039.50;5075027;28;20044;-65
2022/03/13 07:51:17;;;;;;;33.83;12.40;;;;;;;8.33;33.70;101042.59;5074856;28;20121;-65
2022/03/13 07:53:44;;;;;;;27.85;12.75;;;;;;;8.25;33.65;101030.06;5073524;28;20044;-65
2022/03/13 07:56:10;;;;;;;28.25;12.68;;;;;;;8.26;32.33;101031.75;5075030;28;20040;-65
2022/03/13 07:58:37;;;;;;;24.33;12.18;;;;;;;8.48;33.47;101035.19;5073634;28;20094;-65
2022/03/13 08:01:04;;;;;;;26.88;12.02;;;;;;;8.38;33.01;101033.31;5074369;28;20057;-65
2022/03/13 08:03:35;;;;;;;27.80;12.73;;;;;;;8.56;33.06;101035.38;5074601;28;20072;-65
2022/03/13 08:06:03;;;;;;;27.43;12.43;;;;;;;8.61;32.96;101027.88;5073717;28;20052;-65
2022/03/13 08:08:30;;;;;;;29.40;12.98;;;;;;;8.57;32.29;101034.41;5073228;28;20037;-65
2022/03/13 08:10:58;;;;;;;26.38;12.98;;;;;;;8.61;32.31;101033.16;5074727;28;20040;-65
2022/03/13 08:13:26;;;;;;;27.05;12.15;;;;;;;8.49;33.33;101037.69;5073310;28;20489;-65
2022/03/13 08:15:54;;;;;;;24.63;12.80;;;;;;;8.41;33.22;101032.22;5074642;28;20049;-65
2022/03/13 08:18:21;;;;;;;24.38;11.93;;;;;;;8.48;33.54;101037.81;5074382;28;20079;-65
2022/03/13 08:20:48;;;;;;;28.33;13.32;;;;;;;8.51;33.56;101037.56;5074395;28;20131;-65
2022/03/13 08:23:15;;;;;;;28.75;12.82;;;;;;;8.55;32.78;101031.91;5072916;28;20090;-65
2022/03/13 08:25:42;;;;;;;26.65;13.00;;;;;;;8.65;33.55;101029.28;5074195;28;20086;-65
2022/03/13 08:28:09;;;;;;;30.98;12.30;;;;;;;8.72;33.79;101030.41;5073071;28;20075;-65
2022/03/13 08:30:36;;;;;;;27.92;13.45;;;;;;;8.82;33.01;101033.06;5074410;28;20055;-65
2022/03/13 08:33:03;;;;;;;24.67;11.80;;;;;;;9.08;32.49;101024.63;5073013;28;20058;-65
2022/03/13 08:35:30;;;;;;;32.22;13.38;;;;;;;9.09;31.98;101023.66;5074188;28;20036;-65
2022/03/13 08:37:58;;;;;;;27.42;12.63;;;;;;;9.09;32.18;101023.66;5072502;28;20401;-65
2022/03/13 08:40:25;;;;;;;27.58;13.18;;;;;;;9.11;32.37;101035.78;5073761;28;20064;-65
2022/03/13 08:42:53;;;;;;;26.52;12.93;;;;;;;9.21;32.27;101019.91;5073956;28;20128;-65
2022/03/13 08:45:20;;;;;;;32.35;13.40;;;;;;;9.00;31.63;101030.59;5073893;28;20178;-65
2022/03/13 08:47:47;;;;;;;26.67;13.23;;;;;;;9.19;32.05;101025.34;5073035;28;20094;-65
2022/03/13 08:50:16;;;;;;;26.00;13.45;;;;;;;9.33;31.51;101031.19;5073542;28;20037;-65
2022/03/13 08:52:43;;;;;;;27.98;12.85;;;;;;;9.40;32.00;101029.66;5073948;28;20074;-65
2022/03/13 08:55:15;;;;;;;24.00;13.40;;;;;;;9.55;31.63;101030.94;5073323;28;20041;-65
2022/03/13 08:57:43;;;;;;;26.17;12.65;;;;;;;9.69;32.25;101027.00;5073901;28;20161;-65
2022/03/13 09:00:12;;;;;;;28.35;13.60;;;;;;;9.80;31.85;101029.53;5055856;28;20061;-65
2022/03/13 09:02:38;;;;;;;31.92;13.40;;;;;;;9.94;31.59;101030.88;5073411;28;20048;-65
2022/03/13 09:05:05;;;;;;;37.17;14.05;;;;;;;10.10;31.34;101026.81;5073386;28;20040;-65
2022/03/13 09:07:32;;;;;;;34.40;14.55;;;;;;;10.12;31.93;101032.78;5072382;28;20047;-65
2022/03/13 09:10:02;;;;;;;28.13;13.85;;;;;;;10.13;30.85;101032.66;5071911;28;20086;-65
2022/03/13 09:12:31;;;;;;;30.02;14.35;;;;;;;10.26;31.55;101031.47;5073487;28;20048;-65
2022/03/13 09:15:00;;;;;;;28.27;13.90;;;;;;;10.42;31.17;101029.06;5073505;28;20075;-65
2022/03/13 09:17:27;;;;;;;30.83;14.13;;;;;;;10.35;31.43;101022.69;5055904;28;20044;-65
2022/03/13 09:19:55;;;;;;;30.30;14.40;;;;;;;10.18;31.12;101025.06;5072001;28;20037;-65
2022/03/13 09:22:25;;;;;;;27.60;14.45;;;;;;;10.40;31.41;101027.56;5072193;28;20047;-65
2022/03/13 09:24:51;;;;;;;30.80;15.02;;;;;;;10.44;30.87;101026.28;5071650;28;20086;-65
2022/03/13 09:27:18;;;;;;;31.75;14.20;;;;;;;10.63;31.40;101022.72;5071746;28;20123;-66
2022/03/13 09:29:45;;;;;;;30.55;14.73;;;;;;;10.72;30.95;101022.66;5072909;28;20067;-65
2022/03/13 09:32:11;;;;;;;26.30;14.07;;;;;;;10.98;31.12;101021.13;5073196;28;20041;-65
2022/03/13 09:34:38;;;;;;;27.70;14.43;;;;;;;11.01;30.34;101023.47;5072228;28;20047;-65
2022/03/13 09:37:05;;;;;;;30.50;14.70;;;;;;;11.29;30.92;101022.41;5055376;28;20048;-65
2022/03/13 09:39:31;;;;;;;30.33;14.77;;;;;;;11.38;30.47;101022.50;5072957;28;20044;-65
2022/03/13 09:41:58;;;;;;;29.67;14.68;;;;;;;11.36;31.43;101021.81;5072852;28;20044;-65
2022/03/13 09:44:25;;;;;;;32.67;15.23;;;;;;;11.53;30.32;101019.16;5073002;28;20044;-66
2022/03/13 09:46:52;;;;;;;29.67;14.68;;;;;;;11.56;30.42;101009.22;5071623;28;20044;-65
2022/03/13 09:49:20;;;;;;;30.67;15.27;;;;;;;11.56;29.92;101007.38;5071416;28;20037;-66
2022/03/13 09:51:47;;;;;;;29.90;14.55;;;;;;;11.65;30.54;101006.44;5071764;28;20094;-66
2022/03/13 09:54:14;;;;;;;29.20;14.30;;;;;;;12.34;29.19;101003.09;5072471;28;20044;-66
2022/03/13 09:56:41;;;;;;;33.30;15.30;;;;;;;13.29;28.17;101003.66;5088652;28;20123;-64
2022/03/13 09:59:07;;;;;;;35.85;14.95;;;;;;;14.53;26.44;101012.31;5071595;28;20055;-66
2022/03/13 10:01:35;;;;;;;41.03;20.65;;;;;;;14.86;25.63;100999.69;5054780;28;20489;-66
2022/03/13 10:04:04;;;;;;;31.60;15.73;;;;;;;14.47;25.87;101002.34;5072646;28;20146;-65
2022/03/13 10:06:33;;;;;;;31.00;14.80;;;;;;;14.88;25.68;100996.81;5072688;28;20582;-65
2022/03/13 10:09:27;;;;;;;27.52;15.88;;;;;;;16.47;24.45;101000.44;5072781;28;20467;-64
2022/03/13 10:12:16;;;;;;;34.67;15.63;;;;;;;18.24;21.38;101002.50;5071644;28;20045;-66
2022/03/13 10:15:01;;;;;;;28.38;15.23;;;;;;;20.10;20.25;100990.41;5072822;28;20040;-65
2022/03/13 10:17:33;;;;;;;29.63;16.23;;;;;;;20.88;19.34;100998.44;5055426;28;20040;-65
2022/03/13 10:20:23;;;;;;;29.38;15.50;;;;;;;22.15;17.82;100999.28;5071660;28;20049;-65
2022/03/13 10:23:05;;;;;;;32.80;17.10;;;;;;;22.12;17.63;101000.59;5055617;28;20052;-65
2022/03/13 10:25:34;;;;;;;28.77;16.50;;;;;;;22.90;17.51;101001.72;5049744;28;20052;-65
2022/03/13 10:28:23;;;;;;;26.13;15.85;;;;;;;23.63;15.88;100994.38;5076646;28;20041;-66
2022/03/13 10:31:08;;;;;;;30.13;15.27;;;;;;;23.07;16.39;100996.50;5075129;28;20049;-65
2022/03/13 10:33:55;;;;;;;28.42;15.20;;;;;;;22.97;17.77;100988.91;5070979;28;20032;-66
2022/03/13 10:36:31;;;;;;;27.40;15.13;;;;;;;23.00;17.50;100987.63;5076941;28;20079;-66
2022/03/13 10:39:00;;;;;;;33.83;15.45;;;;;;;24.25;16.59;100979.47;5074894;28;20040;-66
2022/03/13 10:41:42;;;;;;;24.95;14.75;;;;;;;23.53;16.93;100981.41;5075287;28;20040;-66
2022/03/13 10:44:20;;;;;;;26.23;14.73;;;;;;;24.40;16.08;100979.81;5075693;28;20485;-66
2022/03/13 10:47:05;;;;;;;26.70;15.18;;;;;;;24.31;15.94;100979.34;5064398;28;20047;-66
2022/03/13 10:49:45;;;;;;;25.80;15.25;;;;;;;24.70;15.70;100981.50;5056045;28;20076;-66
2022/03/13 10:52:25;;;;;;;26.88;16.20;;;;;;;24.17;16.87;100972.56;5063800;28;20045;-66
2022/03/13 10:54:53;;;;;;;30.75;16.55;;;;;;;25.10;16.57;100981.44;5070256;28;20033;-66
2022/03/13 10:57:21;;;;;;;25.67;16.17;;;;;;;24.75;16.26;100970.75;5074568;28;20477;-66
2022/03/13 11:00:10;;;;;;;28.00;16.27;;;;;;;24.12;16.96;100967.03;5075626;28;20587;-66
2022/03/13 11:02:37;;;;;;;28.20;15.73;;;;;;;25.16;16.83;100968.78;5074120;28;20416;-66
2022/03/13 11:05:05;;;;;;;31.55;16.77;;;;;;;23.95;16.71;100969.66;5074519;28;20074;-67
2022/03/13 11:07:32;;;;;;;30.52;16.55;;;;;;;25.16;16.72;100966.06;5074812;28;20098;-66
2022/03/13 11:09:59;;;;;;;26.60;15.80;;;;;;;25.69;16.26;100958.47;5058021;28;20041;-66
2022/03/13 11:12:27;;;;;;;27.40;16.08;;;;;;;24.48;17.33;100962.34;5058014;28;20388;-67
2022/03/13 11:14:57;;;;;;;24.55;15.80;;;;;;;24.78;17.49;100961.31;5074589;28;20459;-67
2022/03/13 11:17:27;;;;;;;24.70;16.27;;;;;;;25.51;16.83;100961.47;5091375;28;20040;-67
2022/03/13 11:19:57;;;;;;;26.43;16.17;;;;;;;25.51;16.79;100956.03;5074501;28;20044;-66
2022/03/13 11:22:26;;;;;;;26.67;16.80;;;;;;;25.91;16.86;100955.78;5074425;28;20043;-67